TAFS

Station TAF
VRMM
VRMM 021100Z 0112/0218 27008KT 9999 FEW018TCU TEMPO 0212/0218 FEW018CB=
VRMH
VRMH 021100Z 0112/0218 28009KT 9999 FEW018TCU TEMPO 0214/0220 FEW018CB=
VRMK
VRMK 021100Z 0112/0212 15004KT 9999 FEW018TCU SCT110 TEMPO 0212/0218 5000 SHRA FEW017CB=
VRMT
VRMT 021100Z 0112/0212 14004KT 9999 FEW018TCU SCT110 TEMPO 0212/0218 5000 SHRA FEW017CB=
VRMG
VRMG 021100Z 0112/0218 14006KT 9999 FEW018TCU SCT110 TEMPO 0212/0218 5000 SHRA FEW017CB=